sensor_id;sensor_type;location;lat;lon;timestamp;P1;durP1;ratioP1;P2;durP2;ratioP2
14858;SDS011;7521;51.700;6.874;2022-12-24T00:01:16;31.97;;;9.20;;
14858;SDS011;7521;51.700;6.874;2022-12-24T00:04:22;26.70;;;7.63;;
14858;SDS011;7521;51.700;6.874;2022-12-24T00:07:27;30.45;;;8.15;;
14858;SDS011;7521;51.700;6.874;2022-12-24T00:10:32;29.80;;;8.53;;
14858;SDS011;7521;51.700;6.874;2022-12-24T00:13:37;28.30;;;7.05;;
14858;SDS011;7521;51.700;6.874;2022-12-24T00:16:42;27.53;;;8.03;;
14858;SDS011;7521;51.700;6.874;2022-12-24T00:19:48;32.05;;;8.73;;
14858;SDS011;7521;51.700;6.874;2022-12-24T00:22:53;29.97;;;7.70;;
14858;SDS011;7521;51.700;6.874;2022-12-24T00:25:58;29.08;;;6.65;;
14858;SDS011;7521;51.700;6.874;2022-12-24T00:29:03;26.88;;;7.03;;
14858;SDS011;7521;51.700;6.874;2022-12-24T00:32:08;25.58;;;6.50;;
14858;SDS011;7521;51.700;6.874;2022-12-24T00:35:14;34.20;;;7.27;;
14858;SDS011;7521;51.700;6.874;2022-12-24T00:38:19;28.07;;;7.27;;
14858;SDS011;7521;51.700;6.874;2022-12-24T00:41:24;29.13;;;6.57;;
14858;SDS011;7521;51.700;6.874;2022-12-24T00:44:30;30.63;;;7.20;;
14858;SDS011;7521;51.700;6.874;2022-12-24T00:47:35;33.30;;;5.60;;
14858;SDS011;7521;51.700;6.874;2022-12-24T00:50:40;27.57;;;6.30;;
14858;SDS011;7521;51.700;6.874;2022-12-24T00:53:45;30.37;;;6.73;;
14858;SDS011;7521;51.700;6.874;2022-12-24T00:56:51;26.23;;;5.90;;
14858;SDS011;7521;51.700;6.874;2022-12-24T00:59:56;28.25;;;6.05;;
14858;SDS011;7521;51.700;6.874;2022-12-24T01:03:01;33.87;;;6.17;;
14858;SDS011;7521;51.700;6.874;2022-12-24T01:06:07;30.73;;;6.13;;
14858;SDS011;7521;51.700;6.874;2022-12-24T01:09:13;41.17;;;6.90;;
14858;SDS011;7521;51.700;6.874;2022-12-24T01:12:18;26.30;;;5.83;;
14858;SDS011;7521;51.700;6.874;2022-12-24T01:15:23;32.17;;;6.22;;
14858;SDS011;7521;51.700;6.874;2022-12-24T01:18:28;25.30;;;5.75;;
14858;SDS011;7521;51.700;6.874;2022-12-24T01:21:34;22.37;;;6.37;;
14858;SDS011;7521;51.700;6.874;2022-12-24T01:24:39;22.90;;;5.25;;
14858;SDS011;7521;51.700;6.874;2022-12-24T01:27:45;25.53;;;5.20;;
14858;SDS011;7521;51.700;6.874;2022-12-24T01:30:50;28.45;;;5.97;;
14858;SDS011;7521;51.700;6.874;2022-12-24T01:33:55;33.92;;;6.45;;
14858;SDS011;7521;51.700;6.874;2022-12-24T01:37:00;36.00;;;6.63;;
14858;SDS011;7521;51.700;6.874;2022-12-24T01:40:06;36.40;;;7.03;;
14858;SDS011;7521;51.700;6.874;2022-12-24T01:43:31;32.53;;;6.77;;
14858;SDS011;7521;51.700;6.874;2022-12-24T01:46:37;27.37;;;6.47;;
14858;SDS011;7521;51.700;6.874;2022-12-24T01:49:44;27.80;;;5.88;;
14858;SDS011;7521;51.700;6.874;2022-12-24T01:52:50;33.63;;;6.73;;
14858;SDS011;7521;51.700;6.874;2022-12-24T01:55:55;30.98;;;6.63;;
14858;SDS011;7521;51.700;6.874;2022-12-24T01:59:03;27.73;;;6.30;;
14858;SDS011;7521;51.700;6.874;2022-12-24T02:02:10;26.87;;;6.60;;
14858;SDS011;7521;51.700;6.874;2022-12-24T02:08:27;23.73;;;5.90;;
14858;SDS011;7521;51.700;6.874;2022-12-24T02:11:44;38.97;;;6.60;;
14858;SDS011;7521;51.700;6.874;2022-12-24T02:14:49;29.80;;;5.80;;
14858;SDS011;7521;51.700;6.874;2022-12-24T02:18:06;33.90;;;6.50;;
14858;SDS011;7521;51.700;6.874;2022-12-24T02:34:44;33.20;;;6.43;;
14858;SDS011;7521;51.700;6.874;2022-12-24T02:37:54;30.13;;;5.93;;
14858;SDS011;7521;51.700;6.874;2022-12-24T02:41:06;35.90;;;7.13;;
14858;SDS011;7521;51.700;6.874;2022-12-24T02:44:12;32.97;;;7.13;;
14858;SDS011;7521;51.700;6.874;2022-12-24T02:47:18;38.13;;;6.90;;
14858;SDS011;7521;51.700;6.874;2022-12-24T02:50:25;33.27;;;7.00;;
14858;SDS011;7521;51.700;6.874;2022-12-24T02:53:31;35.20;;;6.57;;
14858;SDS011;7521;51.700;6.874;2022-12-24T02:59:57;30.87;;;7.47;;
14858;SDS011;7521;51.700;6.874;2022-12-24T03:06:23;23.87;;;6.30;;
14858;SDS011;7521;51.700;6.874;2022-12-24T03:09:43;29.30;;;7.37;;
14858;SDS011;7521;51.700;6.874;2022-12-24T03:12:54;30.77;;;7.10;;
14858;SDS011;7521;51.700;6.874;2022-12-24T03:16:00;31.27;;;7.87;;
14858;SDS011;7521;51.700;6.874;2022-12-24T03:19:08;30.27;;;6.53;;
14858;SDS011;7521;51.700;6.874;2022-12-24T03:22:13;28.00;;;6.60;;
14858;SDS011;7521;51.700;6.874;2022-12-24T03:25:20;39.03;;;7.43;;
14858;SDS011;7521;51.700;6.874;2022-12-24T03:28:27;28.67;;;7.03;;
14858;SDS011;7521;51.700;6.874;2022-12-24T03:31:39;33.53;;;6.80;;
14858;SDS011;7521;51.700;6.874;2022-12-24T03:34:45;27.67;;;7.50;;
14858;SDS011;7521;51.700;6.874;2022-12-24T03:37:50;38.17;;;7.00;;
14858;SDS011;7521;51.700;6.874;2022-12-24T03:40:55;31.17;;;6.63;;
14858;SDS011;7521;51.700;6.874;2022-12-24T03:44:01;33.60;;;7.43;;
14858;SDS011;7521;51.700;6.874;2022-12-24T03:47:06;44.60;;;7.17;;
14858;SDS011;7521;51.700;6.874;2022-12-24T03:50:11;36.50;;;7.82;;
14858;SDS011;7521;51.700;6.874;2022-12-24T03:53:16;33.05;;;6.80;;
14858;SDS011;7521;51.700;6.874;2022-12-24T03:56:22;29.83;;;6.43;;
14858;SDS011;7521;51.700;6.874;2022-12-24T03:59:27;32.70;;;6.80;;
14858;SDS011;7521;51.700;6.874;2022-12-24T04:02:32;31.60;;;7.50;;
14858;SDS011;7521;51.700;6.874;2022-12-24T04:05:37;36.92;;;7.85;;
14858;SDS011;7521;51.700;6.874;2022-12-24T04:08:43;37.70;;;7.95;;
14858;SDS011;7521;51.700;6.874;2022-12-24T04:11:48;31.87;;;6.93;;
14858;SDS011;7521;51.700;6.874;2022-12-24T04:14:53;31.55;;;7.28;;
14858;SDS011;7521;51.700;6.874;2022-12-24T04:17:58;34.70;;;6.63;;
14858;SDS011;7521;51.700;6.874;2022-12-24T04:21:04;26.77;;;6.75;;
14858;SDS011;7521;51.700;6.874;2022-12-24T04:24:09;35.50;;;6.93;;
14858;SDS011;7521;51.700;6.874;2022-12-24T04:27:15;29.02;;;6.90;;
14858;SDS011;7521;51.700;6.874;2022-12-24T04:30:20;29.47;;;7.30;;
14858;SDS011;7521;51.700;6.874;2022-12-24T04:33:25;32.67;;;7.50;;
14858;SDS011;7521;51.700;6.874;2022-12-24T04:36:30;39.57;;;7.67;;
14858;SDS011;7521;51.700;6.874;2022-12-24T04:39:36;33.67;;;6.90;;
14858;SDS011;7521;51.700;6.874;2022-12-24T04:42:41;37.23;;;7.37;;
14858;SDS011;7521;51.700;6.874;2022-12-24T04:45:46;28.33;;;6.60;;
14858;SDS011;7521;51.700;6.874;2022-12-24T04:48:52;31.98;;;7.72;;
14858;SDS011;7521;51.700;6.874;2022-12-24T04:51:57;29.50;;;5.90;;
14858;SDS011;7521;51.700;6.874;2022-12-24T04:55:03;31.35;;;6.60;;
14858;SDS011;7521;51.700;6.874;2022-12-24T04:58:08;29.87;;;5.73;;
14858;SDS011;7521;51.700;6.874;2022-12-24T05:01:15;22.88;;;5.85;;
14858;SDS011;7521;51.700;6.874;2022-12-24T05:04:21;27.70;;;6.20;;
14858;SDS011;7521;51.700;6.874;2022-12-24T05:07:26;30.33;;;6.10;;
14858;SDS011;7521;51.700;6.874;2022-12-24T05:10:31;35.13;;;6.57;;
14858;SDS011;7521;51.700;6.874;2022-12-24T05:13:36;31.43;;;6.50;;
14858;SDS011;7521;51.700;6.874;2022-12-24T05:16:42;32.08;;;5.85;;
14858;SDS011;7521;51.700;6.874;2022-12-24T05:19:47;30.93;;;5.97;;
14858;SDS011;7521;51.700;6.874;2022-12-24T05:22:53;29.48;;;5.88;;
14858;SDS011;7521;51.700;6.874;2022-12-24T05:26:17;30.67;;;6.70;;
14858;SDS011;7521;51.700;6.874;2022-12-24T05:29:25;40.90;;;6.77;;
14858;SDS011;7521;51.700;6.874;2022-12-24T05:32:31;25.63;;;5.50;;
14858;SDS011;7521;51.700;6.874;2022-12-24T05:35:36;27.83;;;6.47;;
14858;SDS011;7521;51.700;6.874;2022-12-24T05:38:41;27.42;;;6.53;;
14858;SDS011;7521;51.700;6.874;2022-12-24T05:41:46;27.50;;;6.07;;
14858;SDS011;7521;51.700;6.874;2022-12-24T05:44:51;28.87;;;6.33;;
14858;SDS011;7521;51.700;6.874;2022-12-24T05:47:57;22.67;;;6.20;;
14858;SDS011;7521;51.700;6.874;2022-12-24T05:51:03;25.95;;;5.97;;
14858;SDS011;7521;51.700;6.874;2022-12-24T05:54:09;28.53;;;6.57;;
14858;SDS011;7521;51.700;6.874;2022-12-24T05:57:14;32.27;;;6.87;;
14858;SDS011;7521;51.700;6.874;2022-12-24T06:00:20;27.90;;;5.93;;
14858;SDS011;7521;51.700;6.874;2022-12-24T06:03:25;22.90;;;5.70;;
14858;SDS011;7521;51.700;6.874;2022-12-24T06:06:30;31.40;;;6.38;;
14858;SDS011;7521;51.700;6.874;2022-12-24T06:09:35;28.67;;;6.10;;
14858;SDS011;7521;51.700;6.874;2022-12-24T06:12:40;22.75;;;5.75;;
14858;SDS011;7521;51.700;6.874;2022-12-24T06:15:46;22.73;;;6.47;;
14858;SDS011;7521;51.700;6.874;2022-12-24T06:18:51;28.02;;;6.47;;
14858;SDS011;7521;51.700;6.874;2022-12-24T06:21:56;25.97;;;6.33;;
14858;SDS011;7521;51.700;6.874;2022-12-24T06:25:01;25.97;;;5.83;;
14858;SDS011;7521;51.700;6.874;2022-12-24T06:28:06;34.73;;;7.40;;
14858;SDS011;7521;51.700;6.874;2022-12-24T06:31:13;30.50;;;7.35;;
14858;SDS011;7521;51.700;6.874;2022-12-24T06:34:18;30.57;;;7.13;;
14858;SDS011;7521;51.700;6.874;2022-12-24T06:37:23;25.38;;;6.65;;
14858;SDS011;7521;51.700;6.874;2022-12-24T06:40:28;28.47;;;6.63;;
14858;SDS011;7521;51.700;6.874;2022-12-24T06:43:34;24.00;;;5.93;;
14858;SDS011;7521;51.700;6.874;2022-12-24T06:46:39;25.87;;;5.97;;
14858;SDS011;7521;51.700;6.874;2022-12-24T06:49:44;19.70;;;5.85;;
14858;SDS011;7521;51.700;6.874;2022-12-24T06:52:49;28.60;;;6.40;;
14858;SDS011;7521;51.700;6.874;2022-12-24T06:56:01;31.65;;;6.43;;
14858;SDS011;7521;51.700;6.874;2022-12-24T06:59:07;26.80;;;5.80;;
14858;SDS011;7521;51.700;6.874;2022-12-24T07:02:12;30.60;;;7.20;;
14858;SDS011;7521;51.700;6.874;2022-12-24T07:05:17;29.10;;;5.80;;
14858;SDS011;7521;51.700;6.874;2022-12-24T07:08:22;28.90;;;6.13;;
14858;SDS011;7521;51.700;6.874;2022-12-24T07:11:28;29.57;;;6.60;;
14858;SDS011;7521;51.700;6.874;2022-12-24T07:14:33;28.35;;;6.78;;
14858;SDS011;7521;51.700;6.874;2022-12-24T07:17:38;28.53;;;6.53;;
14858;SDS011;7521;51.700;6.874;2022-12-24T07:20:43;25.33;;;6.50;;
14858;SDS011;7521;51.700;6.874;2022-12-24T07:23:48;20.60;;;6.07;;
14858;SDS011;7521;51.700;6.874;2022-12-24T07:26:54;31.25;;;6.63;;
14858;SDS011;7521;51.700;6.874;2022-12-24T07:29:59;24.17;;;5.95;;
14858;SDS011;7521;51.700;6.874;2022-12-24T07:33:04;31.35;;;6.43;;
14858;SDS011;7521;51.700;6.874;2022-12-24T07:36:11;28.55;;;6.78;;
14858;SDS011;7521;51.700;6.874;2022-12-24T07:39:18;29.23;;;7.17;;
14858;SDS011;7521;51.700;6.874;2022-12-24T07:42:23;27.60;;;6.07;;
14858;SDS011;7521;51.700;6.874;2022-12-24T07:45:29;32.53;;;7.55;;
14858;SDS011;7521;51.700;6.874;2022-12-24T07:48:34;28.92;;;6.40;;
14858;SDS011;7521;51.700;6.874;2022-12-24T07:51:39;21.53;;;6.10;;
14858;SDS011;7521;51.700;6.874;2022-12-24T07:54:44;26.95;;;6.70;;
14858;SDS011;7521;51.700;6.874;2022-12-24T07:57:49;27.53;;;6.53;;
14858;SDS011;7521;51.700;6.874;2022-12-24T08:00:58;31.88;;;6.95;;
14858;SDS011;7521;51.700;6.874;2022-12-24T08:04:03;23.63;;;5.70;;
14858;SDS011;7521;51.700;6.874;2022-12-24T08:07:09;34.83;;;7.37;;
14858;SDS011;7521;51.700;6.874;2022-12-24T08:10:14;21.43;;;5.20;;
14858;SDS011;7521;51.700;6.874;2022-12-24T08:13:19;21.70;;;6.27;;
14858;SDS011;7521;51.700;6.874;2022-12-24T08:16:24;24.07;;;6.27;;
14858;SDS011;7521;51.700;6.874;2022-12-24T08:19:29;25.42;;;5.95;;
14858;SDS011;7521;51.700;6.874;2022-12-24T08:22:34;28.08;;;6.70;;
14858;SDS011;7521;51.700;6.874;2022-12-24T08:25:43;24.25;;;5.03;;
14858;SDS011;7521;51.700;6.874;2022-12-24T08:28:49;28.30;;;5.83;;
14858;SDS011;7521;51.700;6.874;2022-12-24T08:31:54;29.55;;;5.68;;
14858;SDS011;7521;51.700;6.874;2022-12-24T08:34:59;27.35;;;5.50;;
14858;SDS011;7521;51.700;6.874;2022-12-24T08:38:04;23.02;;;5.53;;
14858;SDS011;7521;51.700;6.874;2022-12-24T08:41:09;27.93;;;6.13;;
14858;SDS011;7521;51.700;6.874;2022-12-24T08:44:15;30.80;;;5.78;;
14858;SDS011;7521;51.700;6.874;2022-12-24T08:47:20;26.25;;;5.85;;
14858;SDS011;7521;51.700;6.874;2022-12-24T08:50:25;30.77;;;6.90;;
14858;SDS011;7521;51.700;6.874;2022-12-24T08:53:32;26.57;;;5.73;;
14858;SDS011;7521;51.700;6.874;2022-12-24T08:56:37;22.73;;;5.63;;
14858;SDS011;7521;51.700;6.874;2022-12-24T08:59:42;24.60;;;6.75;;
14858;SDS011;7521;51.700;6.874;2022-12-24T09:02:47;27.73;;;6.82;;
14858;SDS011;7521;51.700;6.874;2022-12-24T09:05:52;27.95;;;6.65;;
14858;SDS011;7521;51.700;6.874;2022-12-24T09:08:58;36.47;;;9.73;;
14858;SDS011;7521;51.700;6.874;2022-12-24T09:12:04;21.60;;;5.80;;
14858;SDS011;7521;51.700;6.874;2022-12-24T09:15:10;29.20;;;7.03;;
14858;SDS011;7521;51.700;6.874;2022-12-24T09:18:15;26.20;;;6.23;;
14858;SDS011;7521;51.700;6.874;2022-12-24T09:21:20;27.65;;;6.70;;
14858;SDS011;7521;51.700;6.874;2022-12-24T09:24:25;25.45;;;6.25;;
14858;SDS011;7521;51.700;6.874;2022-12-24T09:27:30;25.80;;;5.87;;
14858;SDS011;7521;51.700;6.874;2022-12-24T09:30:36;22.03;;;5.80;;
14858;SDS011;7521;51.700;6.874;2022-12-24T09:33:42;26.90;;;5.60;;
14858;SDS011;7521;51.700;6.874;2022-12-24T09:36:47;30.43;;;5.73;;
14858;SDS011;7521;51.700;6.874;2022-12-24T09:39:52;29.75;;;5.93;;
14858;SDS011;7521;51.700;6.874;2022-12-24T09:42:57;28.75;;;5.60;;
14858;SDS011;7521;51.700;6.874;2022-12-24T09:46:19;25.33;;;6.10;;
14858;SDS011;7521;51.700;6.874;2022-12-24T09:49:28;33.80;;;6.30;;
14858;SDS011;7521;51.700;6.874;2022-12-24T09:52:39;29.40;;;6.33;;
14858;SDS011;7521;51.700;6.874;2022-12-24T09:55:46;27.53;;;6.00;;
14858;SDS011;7521;51.700;6.874;2022-12-24T09:58:59;23.27;;;5.80;;
14858;SDS011;7521;51.700;6.874;2022-12-24T10:02:08;28.87;;;6.07;;
14858;SDS011;7521;51.700;6.874;2022-12-24T10:05:16;32.07;;;6.27;;
14858;SDS011;7521;51.700;6.874;2022-12-24T10:11:51;32.87;;;6.57;;
14858;SDS011;7521;51.700;6.874;2022-12-24T10:15:02;27.73;;;6.23;;
14858;SDS011;7521;51.700;6.874;2022-12-24T10:21:46;29.27;;;6.77;;
14858;SDS011;7521;51.700;6.874;2022-12-24T10:28:04;28.37;;;7.30;;
14858;SDS011;7521;51.700;6.874;2022-12-24T10:31:13;32.27;;;6.53;;
14858;SDS011;7521;51.700;6.874;2022-12-24T10:34:20;26.33;;;5.83;;
14858;SDS011;7521;51.700;6.874;2022-12-24T10:37:27;27.13;;;6.30;;
14858;SDS011;7521;51.700;6.874;2022-12-24T10:40:37;22.17;;;5.20;;
14858;SDS011;7521;51.700;6.874;2022-12-24T10:43:44;31.37;;;6.20;;
14858;SDS011;7521;51.700;6.874;2022-12-24T10:46:49;30.13;;;5.90;;
14858;SDS011;7521;51.700;6.874;2022-12-24T10:50:57;31.00;;;6.70;;
14858;SDS011;7521;51.700;6.874;2022-12-24T10:53:35;28.67;;;6.50;;
14858;SDS011;7521;51.700;6.874;2022-12-24T10:56:42;29.70;;;6.37;;
14858;SDS011;7521;51.700;6.874;2022-12-24T10:59:49;26.33;;;6.43;;
14858;SDS011;7521;51.700;6.874;2022-12-24T11:06:31;30.60;;;7.23;;
14858;SDS011;7521;51.700;6.874;2022-12-24T11:09:37;30.67;;;7.03;;
14858;SDS011;7521;51.700;6.874;2022-12-24T11:12:47;29.80;;;5.90;;
14858;SDS011;7521;51.700;6.874;2022-12-24T11:16:00;40.27;;;7.07;;
14858;SDS011;7521;51.700;6.874;2022-12-24T11:19:13;26.33;;;6.57;;
14858;SDS011;7521;51.700;6.874;2022-12-24T11:22:23;28.70;;;6.33;;
14858;SDS011;7521;51.700;6.874;2022-12-24T11:25:32;33.03;;;6.97;;
14858;SDS011;7521;51.700;6.874;2022-12-24T11:28:41;25.50;;;7.17;;
14858;SDS011;7521;51.700;6.874;2022-12-24T11:31:47;26.50;;;5.95;;
14858;SDS011;7521;51.700;6.874;2022-12-24T11:34:52;32.90;;;7.63;;
14858;SDS011;7521;51.700;6.874;2022-12-24T11:41:09;25.70;;;6.57;;
14858;SDS011;7521;51.700;6.874;2022-12-24T11:44:21;28.60;;;6.63;;
14858;SDS011;7521;51.700;6.874;2022-12-24T11:47:31;32.80;;;6.63;;
14858;SDS011;7521;51.700;6.874;2022-12-24T11:50:36;29.23;;;6.63;;
14858;SDS011;7521;51.700;6.874;2022-12-24T11:57:06;33.90;;;6.63;;
14858;SDS011;7521;51.700;6.874;2022-12-24T12:00:12;25.70;;;6.60;;
14858;SDS011;7521;51.700;6.874;2022-12-24T12:06:34;35.97;;;7.03;;
14858;SDS011;7521;51.700;6.874;2022-12-24T12:09:45;29.00;;;6.60;;
14858;SDS011;7521;51.700;6.874;2022-12-24T12:16:16;26.97;;;7.10;;
14858;SDS011;7521;51.700;6.874;2022-12-24T12:19:22;32.43;;;6.13;;
14858;SDS011;7521;51.700;6.874;2022-12-24T12:22:47;30.03;;;7.23;;
14858;SDS011;7521;51.700;6.874;2022-12-24T12:32:19;32.92;;;7.30;;
14858;SDS011;7521;51.700;6.874;2022-12-24T12:35:28;33.37;;;8.20;;
14858;SDS011;7521;51.700;6.874;2022-12-24T12:38:34;36.23;;;9.23;;
14858;SDS011;7521;51.700;6.874;2022-12-24T12:41:53;32.73;;;8.10;;
14858;SDS011;7521;51.700;6.874;2022-12-24T12:45:05;30.73;;;6.80;;
14858;SDS011;7521;51.700;6.874;2022-12-24T12:51:21;26.13;;;7.38;;
14858;SDS011;7521;51.700;6.874;2022-12-24T12:54:31;26.80;;;7.50;;
14858;SDS011;7521;51.700;6.874;2022-12-24T12:57:38;34.23;;;8.00;;
14858;SDS011;7521;51.700;6.874;2022-12-24T13:00:44;25.37;;;7.30;;
14858;SDS011;7521;51.700;6.874;2022-12-24T13:13:39;20.83;;;7.00;;
14858;SDS011;7521;51.700;6.874;2022-12-24T13:23:19;30.47;;;7.20;;
14858;SDS011;7521;51.700;6.874;2022-12-24T13:26:25;20.40;;;6.80;;
14858;SDS011;7521;51.700;6.874;2022-12-24T13:29:38;27.85;;;6.93;;
14858;SDS011;7521;51.700;6.874;2022-12-24T13:32:46;28.10;;;7.27;;
14858;SDS011;7521;51.700;6.874;2022-12-24T13:35:58;24.03;;;6.10;;
14858;SDS011;7521;51.700;6.874;2022-12-24T13:39:04;25.13;;;7.10;;
14858;SDS011;7521;51.700;6.874;2022-12-24T13:42:09;19.48;;;6.97;;
14858;SDS011;7521;51.700;6.874;2022-12-24T13:45:40;27.80;;;7.80;;
14858;SDS011;7521;51.700;6.874;2022-12-24T13:48:46;24.80;;;6.53;;
14858;SDS011;7521;51.700;6.874;2022-12-24T13:52:03;32.78;;;8.30;;
14858;SDS011;7521;51.700;6.874;2022-12-24T13:55:13;28.60;;;7.43;;
14858;SDS011;7521;51.700;6.874;2022-12-24T13:58:19;20.97;;;7.10;;
14858;SDS011;7521;51.700;6.874;2022-12-24T14:01:32;24.10;;;6.63;;
14858;SDS011;7521;51.700;6.874;2022-12-24T14:04:38;27.43;;;6.97;;
14858;SDS011;7521;51.700;6.874;2022-12-24T14:07:46;24.60;;;7.70;;
14858;SDS011;7521;51.700;6.874;2022-12-24T14:11:04;22.50;;;7.10;;
14858;SDS011;7521;51.700;6.874;2022-12-24T14:14:10;28.00;;;7.03;;
14858;SDS011;7521;51.700;6.874;2022-12-24T14:17:23;21.33;;;6.87;;
14858;SDS011;7521;51.700;6.874;2022-12-24T14:20:30;27.03;;;7.43;;
14858;SDS011;7521;51.700;6.874;2022-12-24T14:23:58;27.40;;;7.67;;
14858;SDS011;7521;51.700;6.874;2022-12-24T14:30:18;26.90;;;8.73;;
14858;SDS011;7521;51.700;6.874;2022-12-24T14:33:27;21.77;;;7.40;;
14858;SDS011;7521;51.700;6.874;2022-12-24T14:36:32;23.10;;;7.67;;
14858;SDS011;7521;51.700;6.874;2022-12-24T14:39:42;30.40;;;10.67;;
14858;SDS011;7521;51.700;6.874;2022-12-24T14:46:23;24.53;;;8.50;;
14858;SDS011;7521;51.700;6.874;2022-12-24T14:52:57;28.00;;;9.77;;
14858;SDS011;7521;51.700;6.874;2022-12-24T14:56:14;28.43;;;10.00;;
14858;SDS011;7521;51.700;6.874;2022-12-24T14:59:20;23.60;;;8.27;;
14858;SDS011;7521;51.700;6.874;2022-12-24T15:05:33;21.07;;;7.37;;
14858;SDS011;7521;51.700;6.874;2022-12-24T15:11:44;30.67;;;8.30;;
14858;SDS011;7521;51.700;6.874;2022-12-24T15:14:50;23.50;;;7.57;;
14858;SDS011;7521;51.700;6.874;2022-12-24T15:17:55;22.83;;;7.27;;
14858;SDS011;7521;51.700;6.874;2022-12-24T15:21:02;23.13;;;8.03;;
14858;SDS011;7521;51.700;6.874;2022-12-24T15:24:27;30.47;;;8.80;;
14858;SDS011;7521;51.700;6.874;2022-12-24T15:27:32;22.23;;;8.83;;
14858;SDS011;7521;51.700;6.874;2022-12-24T15:30:42;21.07;;;8.80;;
14858;SDS011;7521;51.700;6.874;2022-12-24T15:33:48;21.92;;;8.20;;
14858;SDS011;7521;51.700;6.874;2022-12-24T15:37:01;24.10;;;8.73;;
14858;SDS011;7521;51.700;6.874;2022-12-24T15:40:08;18.77;;;8.27;;
14858;SDS011;7521;51.700;6.874;2022-12-24T15:43:14;17.70;;;7.80;;
14858;SDS011;7521;51.700;6.874;2022-12-24T15:46:23;20.83;;;7.97;;
14858;SDS011;7521;51.700;6.874;2022-12-24T15:49:30;20.97;;;7.70;;
14858;SDS011;7521;51.700;6.874;2022-12-24T15:52:37;20.00;;;8.17;;
14858;SDS011;7521;51.700;6.874;2022-12-24T15:55:43;22.03;;;8.30;;
14858;SDS011;7521;51.700;6.874;2022-12-24T15:58:49;21.33;;;8.70;;
14858;SDS011;7521;51.700;6.874;2022-12-24T16:01:54;23.73;;;10.13;;
14858;SDS011;7521;51.700;6.874;2022-12-24T16:05:26;21.87;;;9.50;;
14858;SDS011;7521;51.700;6.874;2022-12-24T16:08:35;24.27;;;8.67;;
14858;SDS011;7521;51.700;6.874;2022-12-24T16:11:42;19.00;;;8.83;;
14858;SDS011;7521;51.700;6.874;2022-12-24T16:14:52;20.80;;;8.97;;
14858;SDS011;7521;51.700;6.874;2022-12-24T16:17:58;23.77;;;10.33;;
14858;SDS011;7521;51.700;6.874;2022-12-24T16:21:04;22.97;;;10.33;;
14858;SDS011;7521;51.700;6.874;2022-12-24T16:27:18;22.53;;;9.57;;
14858;SDS011;7521;51.700;6.874;2022-12-24T16:30:23;26.55;;;11.13;;
14858;SDS011;7521;51.700;6.874;2022-12-24T16:33:28;26.77;;;10.20;;
14858;SDS011;7521;51.700;6.874;2022-12-24T16:36:33;20.27;;;9.23;;
14858;SDS011;7521;51.700;6.874;2022-12-24T16:39:39;27.03;;;10.77;;
14858;SDS011;7521;51.700;6.874;2022-12-24T16:42:45;24.63;;;10.40;;
14858;SDS011;7521;51.700;6.874;2022-12-24T16:46:09;30.50;;;9.70;;
14858;SDS011;7521;51.700;6.874;2022-12-24T16:49:17;29.07;;;11.23;;
14858;SDS011;7521;51.700;6.874;2022-12-24T16:52:24;21.30;;;11.27;;
14858;SDS011;7521;51.700;6.874;2022-12-24T16:55:37;26.73;;;10.30;;
14858;SDS011;7521;51.700;6.874;2022-12-24T16:58:42;29.77;;;10.38;;
14858;SDS011;7521;51.700;6.874;2022-12-24T17:01:53;22.27;;;10.25;;
14858;SDS011;7521;51.700;6.874;2022-12-24T17:04:58;29.23;;;10.90;;
14858;SDS011;7521;51.700;6.874;2022-12-24T17:08:04;26.97;;;10.50;;
14858;SDS011;7521;51.700;6.874;2022-12-24T17:11:10;26.83;;;10.97;;
14858;SDS011;7521;51.700;6.874;2022-12-24T17:14:15;20.45;;;9.02;;
14858;SDS011;7521;51.700;6.874;2022-12-24T17:17:25;23.67;;;10.23;;
14858;SDS011;7521;51.700;6.874;2022-12-24T17:20:31;23.40;;;10.30;;
14858;SDS011;7521;51.700;6.874;2022-12-24T17:23:36;20.73;;;9.48;;
14858;SDS011;7521;51.700;6.874;2022-12-24T17:26:41;23.73;;;10.30;;
14858;SDS011;7521;51.700;6.874;2022-12-24T17:29:47;30.07;;;9.47;;
14858;SDS011;7521;51.700;6.874;2022-12-24T17:32:52;24.27;;;9.90;;
14858;SDS011;7521;51.700;6.874;2022-12-24T17:35:58;23.25;;;10.50;;
14858;SDS011;7521;51.700;6.874;2022-12-24T17:39:03;33.33;;;17.17;;
14858;SDS011;7521;51.700;6.874;2022-12-24T17:42:08;28.08;;;13.00;;
14858;SDS011;7521;51.700;6.874;2022-12-24T17:45:13;20.42;;;10.38;;
14858;SDS011;7521;51.700;6.874;2022-12-24T17:48:18;25.60;;;10.73;;
14858;SDS011;7521;51.700;6.874;2022-12-24T17:51:24;23.60;;;11.15;;
14858;SDS011;7521;51.700;6.874;2022-12-24T17:54:29;27.97;;;11.90;;
14858;SDS011;7521;51.700;6.874;2022-12-24T17:57:34;27.07;;;11.40;;
14858;SDS011;7521;51.700;6.874;2022-12-24T18:00:40;25.73;;;12.10;;
14858;SDS011;7521;51.700;6.874;2022-12-24T18:03:45;24.13;;;11.57;;
14858;SDS011;7521;51.700;6.874;2022-12-24T18:06:51;24.53;;;12.90;;
14858;SDS011;7521;51.700;6.874;2022-12-24T18:09:56;27.33;;;13.82;;
14858;SDS011;7521;51.700;6.874;2022-12-24T18:13:01;39.08;;;19.27;;
14858;SDS011;7521;51.700;6.874;2022-12-24T18:16:14;38.70;;;18.10;;
14858;SDS011;7521;51.700;6.874;2022-12-24T18:19:19;29.97;;;15.83;;
14858;SDS011;7521;51.700;6.874;2022-12-24T18:22:24;27.48;;;15.48;;
14858;SDS011;7521;51.700;6.874;2022-12-24T18:25:29;28.13;;;16.80;;
14858;SDS011;7521;51.700;6.874;2022-12-24T18:28:35;34.97;;;17.63;;
14858;SDS011;7521;51.700;6.874;2022-12-24T18:31:40;31.63;;;17.93;;
14858;SDS011;7521;51.700;6.874;2022-12-24T18:34:45;38.88;;;19.42;;
14858;SDS011;7521;51.700;6.874;2022-12-24T18:37:50;36.73;;;19.47;;
14858;SDS011;7521;51.700;6.874;2022-12-24T18:41:00;31.20;;;18.17;;
14858;SDS011;7521;51.700;6.874;2022-12-24T18:44:05;32.00;;;18.90;;
14858;SDS011;7521;51.700;6.874;2022-12-24T18:47:10;32.63;;;17.87;;
14858;SDS011;7521;51.700;6.874;2022-12-24T18:50:16;36.75;;;17.83;;
14858;SDS011;7521;51.700;6.874;2022-12-24T18:53:21;35.65;;;16.88;;
14858;SDS011;7521;51.700;6.874;2022-12-24T18:56:26;31.87;;;15.43;;
14858;SDS011;7521;51.700;6.874;2022-12-24T18:59:31;28.93;;;15.13;;
14858;SDS011;7521;51.700;6.874;2022-12-24T19:02:37;29.47;;;15.07;;
14858;SDS011;7521;51.700;6.874;2022-12-24T19:05:42;27.92;;;14.90;;
14858;SDS011;7521;51.700;6.874;2022-12-24T19:08:47;25.85;;;13.27;;
14858;SDS011;7521;51.700;6.874;2022-12-24T19:11:52;32.57;;;14.27;;
14858;SDS011;7521;51.700;6.874;2022-12-24T19:14:58;31.80;;;16.35;;
14858;SDS011;7521;51.700;6.874;2022-12-24T19:18:03;29.55;;;15.90;;
14858;SDS011;7521;51.700;6.874;2022-12-24T19:21:10;34.20;;;15.77;;
14858;SDS011;7521;51.700;6.874;2022-12-24T19:24:15;33.73;;;15.27;;
14858;SDS011;7521;51.700;6.874;2022-12-24T19:27:20;35.10;;;15.30;;
14858;SDS011;7521;51.700;6.874;2022-12-24T19:30:25;30.77;;;14.73;;
14858;SDS011;7521;51.700;6.874;2022-12-24T19:33:35;32.60;;;15.93;;
14858;SDS011;7521;51.700;6.874;2022-12-24T19:36:40;34.20;;;16.07;;
14858;SDS011;7521;51.700;6.874;2022-12-24T19:39:45;28.60;;;16.73;;
14858;SDS011;7521;51.700;6.874;2022-12-24T19:42:50;32.28;;;15.85;;
14858;SDS011;7521;51.700;6.874;2022-12-24T19:45:56;33.27;;;16.83;;
14858;SDS011;7521;51.700;6.874;2022-12-24T19:49:03;31.50;;;15.57;;
14858;SDS011;7521;51.700;6.874;2022-12-24T19:52:09;33.87;;;17.07;;
14858;SDS011;7521;51.700;6.874;2022-12-24T19:55:14;39.13;;;16.73;;
14858;SDS011;7521;51.700;6.874;2022-12-24T19:58:19;24.73;;;15.23;;
14858;SDS011;7521;51.700;6.874;2022-12-24T20:01:26;27.05;;;14.00;;
14858;SDS011;7521;51.700;6.874;2022-12-24T20:04:31;33.03;;;15.23;;
14858;SDS011;7521;51.700;6.874;2022-12-24T20:07:36;29.60;;;14.53;;
14858;SDS011;7521;51.700;6.874;2022-12-24T20:10:42;29.25;;;15.77;;
14858;SDS011;7521;51.700;6.874;2022-12-24T20:13:48;36.77;;;16.40;;
14858;SDS011;7521;51.700;6.874;2022-12-24T20:16:53;33.85;;;15.50;;
14858;SDS011;7521;51.700;6.874;2022-12-24T20:19:59;29.73;;;14.93;;